Time,TemperatureF,DewpointF,PressureIn,WindDirection,WindDirectionDegrees,WindSpeedMPH,WindSpeedGustMPH,Humidity,HourlyPrecipIn,Conditions,Clouds,dailyrainin,SoftwareType,DateUTC
2013-02-01 00:00:00,55.6,27.7,28.97,ENE,70,3.6,3.6,34,0.00,,---,0.00,VWS V14.01,2013-02-01 08:00:00,
2013-02-01 00:05:00,55.4,27.5,28.97,ENE,63,3.1,3.1,34,0.00,,---,0.00,VWS V14.01,2013-02-01 08:05:00,
2013-02-01 00:10:00,55.4,27.5,28.97,ENE,69,4.0,4.0,34,0.00,,---,0.00,VWS V14.01,2013-02-01 08:10:00,
2013-02-01 00:15:00,55.0,27.9,28.97,NE,44,4.0,4.0,35,0.00,,---,0.00,VWS V14.01,2013-02-01 08:15:00,
2013-02-01 00:20:00,55.0,27.9,28.97,NE,49,4.0,4.0,35,0.00,,---,0.00,VWS V14.01,2013-02-01 08:20:00,
2013-02-01 00:25:00,55.0,27.9,28.97,NE,48,4.0,4.0,35,0.00,,---,0.00,VWS V14.01,2013-02-01 08:25:00,
2013-02-01 00:30:00,55.0,27.9,28.97,NNW,336,3.6,4.0,35,0.00,,---,0.00,VWS V14.01,2013-02-01 08:30:00,
2013-02-01 00:35:00,55.0,27.9,28.97,NE,37,3.6,3.6,35,0.00,,---,0.00,VWS V14.01,2013-02-01 08:35:00,
2013-02-01 00:40:00,55.2,28.1,28.97,NNE,32,3.1,3.1,35,0.00,,---,0.00,VWS V14.01,2013-02-01 08:40:00,
2013-02-01 00:45:00,55.4,27.5,28.97,NNE,33,3.6,3.6,34,0.00,,---,0.00,VWS V14.01,2013-02-01 08:45:00,
2013-02-01 00:50:00,55.0,27.9,28.97,NE,36,2.7,2.7,35,0.00,,---,0.00,VWS V14.01,2013-02-01 08:50:00,
2013-02-01 00:55:00,54.9,28.4,28.97,ENE,72,2.7,2.7,36,0.00,,---,0.00,VWS V14.01,2013-02-01 08:55:00,
2013-02-01 01:00:00,54.5,28.1,28.97,ENE,59,3.1,3.1,36,0.00,,---,0.00,VWS V14.01,2013-02-01 09:00:00,
2013-02-01 01:05:00,54.5,28.1,28.97,NE,55,3.1,3.1,36,0.00,,---,0.00,VWS V14.01,2013-02-01 09:05:00,
2013-02-01 01:10:00,54.1,27.8,28.97,East,82,3.1,3.1,36,0.00,,---,0.00,VWS V14.01,2013-02-01 09:10:00,
2013-02-01 01:15:00,53.6,28.0,28.97,ENE,75,3.6,3.6,37,0.00,,---,0.00,VWS V14.01,2013-02-01 09:15:00,
2013-02-01 01:20:00,53.4,28.5,28.97,ENE,68,3.1,3.1,38,0.00,,---,0.00,VWS V14.01,2013-02-01 09:20:00,
2013-02-01 01:25:00,53.2,28.3,28.97,ENE,61,3.1,3.1,38,0.00,,---,0.00,VWS V14.01,2013-02-01 09:25:00,
2013-02-01 01:30:00,53.2,28.3,28.97,ENE,67,4.0,4.0,38,0.00,,---,0.00,VWS V14.01,2013-02-01 09:30:00,
2013-02-01 01:35:00,53.1,28.1,28.97,ENE,60,4.0,4.0,38,0.00,,---,0.00,VWS V14.01,2013-02-01 09:35:00,
2013-02-01 01:40:00,53.1,28.1,28.97,ENE,77,3.6,3.6,38,0.00,,---,0.00,VWS V14.01,2013-02-01 09:40:00,
2013-02-01 01:45:00,53.1,28.8,28.97,North,11,2.2,2.2,39,0.00,,---,0.00,VWS V14.01,2013-02-01 09:45:00,
2013-02-01 01:50:00,52.9,28.0,28.97,ENE,74,3.6,3.6,38,0.00,,---,0.00,VWS V14.01,2013-02-01 09:50:00,
2013-02-01 01:55:00,52.9,28.6,28.97,ENE,69,4.0,4.0,39,0.00,,---,0.00,VWS V14.01,2013-02-01 09:55:00,
2013-02-01 02:00:00,52.9,28.0,28.97,ENE,62,4.0,4.0,38,0.00,,---,0.00,VWS V14.01,2013-02-01 10:00:00,
2013-02-01 02:05:00,53.1,28.1,28.97,NE,46,3.1,3.1,38,0.00,,---,0.00,VWS V14.01,2013-02-01 10:05:00,
2013-02-01 02:10:00,53.1,28.1,28.97,NE,43,2.7,2.7,38,0.00,,---,0.00,VWS V14.01,2013-02-01 10:10:00,
2013-02-01 02:15:00,53.1,28.1,28.97,NNE,32,3.1,3.1,38,0.00,,---,0.00,VWS V14.01,2013-02-01 10:15:00,
2013-02-01 02:20:00,53.1,28.1,28.97,NNE,28,3.1,3.1,38,0.00,,---,0.00,VWS V14.01,2013-02-01 10:20:00,
2013-02-01 02:25:00,52.9,27.3,28.97,NE,48,3.6,3.6,37,0.00,,---,0.00,VWS V14.01,2013-02-01 10:25:00,
2013-02-01 02:30:00,53.1,27.5,28.97,NNE,28,2.7,3.1,37,0.00,,---,0.00,VWS V14.01,2013-02-01 10:30:00,
2013-02-01 02:35:00,53.1,27.5,28.97,NNW,345,2.7,2.7,37,0.00,,---,0.00,VWS V14.01,2013-02-01 10:35:00,
2013-02-01 02:40:00,53.1,28.1,28.97,NNW,335,2.2,2.2,38,0.00,,---,0.00,VWS V14.01,2013-02-01 10:40:00,
2013-02-01 02:45:00,53.1,27.5,28.97,ENE,66,3.1,3.1,37,0.00,,---,0.00,VWS V14.01,2013-02-01 10:45:00,
2013-02-01 02:50:00,52.9,28.0,28.97,ENE,65,3.6,3.6,38,0.00,,---,0.00,VWS V14.01,2013-02-01 10:50:00,
2013-02-01 02:55:00,52.5,27.7,28.97,ENE,59,3.6,4.0,38,0.00,,---,0.00,VWS V14.01,2013-02-01 10:55:00,
2013-02-01 03:00:00,52.2,28.0,28.97,ENE,62,3.6,3.6,39,0.00,,---,0.00,VWS V14.01,2013-02-01 11:00:00,
2013-02-01 03:05:00,52.0,27.8,28.97,NE,55,3.6,3.6,39,0.00,,---,0.00,VWS V14.01,2013-02-01 11:05:00,
2013-02-01 03:10:00,52.0,27.8,28.97,NE,50,3.1,3.1,39,0.00,,---,0.00,VWS V14.01,2013-02-01 11:10:00,
2013-02-01 03:15:00,51.8,28.3,28.97,East,87,4.0,4.0,40,0.00,,---,0.00,VWS V14.01,2013-02-01 11:15:00,
2013-02-01 03:20:00,51.6,28.1,28.97,East,87,4.0,4.0,40,0.00,,---,0.00,VWS V14.01,2013-02-01 11:20:00,
2013-02-01 03:25:00,51.6,28.7,28.97,ENE,69,3.6,3.6,41,0.00,,---,0.00,VWS V14.01,2013-02-01 11:25:00,
2013-02-01 03:30:00,51.6,28.1,28.97,NE,53,2.7,2.7,40,0.00,,---,0.00,VWS V14.01,2013-02-01 11:30:00,
2013-02-01 03:35:00,51.6,28.1,28.97,NE,49,0.0,0.0,40,0.00,,---,0.00,VWS V14.01,2013-02-01 11:35:00,
2013-02-01 03:40:00,51.6,28.1,28.97,NE,48,2.7,2.7,40,0.00,,---,0.00,VWS V14.01,2013-02-01 11:40:00,
2013-02-01 03:45:00,51.6,28.1,28.97,East,87,4.0,4.0,40,0.00,,---,0.00,VWS V14.01,2013-02-01 11:45:00,
2013-02-01 03:50:00,51.6,28.1,28.97,East,86,0.0,0.0,40,0.00,,---,0.00,VWS V14.01,2013-02-01 11:50:00,
2013-02-01 03:55:00,51.4,28.5,28.97,East,83,2.2,2.2,41,0.00,,---,0.00,VWS V14.01,2013-02-01 11:55:00,
2013-02-01 04:00:00,51.3,27.8,28.97,ENE,64,2.7,2.7,40,0.00,,---,0.00,VWS V14.01,2013-02-01 12:00:00,
2013-02-01 04:05:00,51.1,28.2,28.97,ENE,61,0.0,0.0,41,0.00,,---,0.00,VWS V14.01,2013-02-01 12:05:00,
2013-02-01 04:10:00,51.3,28.4,28.97,ENE,61,2.7,2.7,41,0.00,,---,0.00,VWS V14.01,2013-02-01 12:10:00,
2013-02-01 04:15:00,51.1,28.2,28.97,ENE,59,3.6,4.9,41,0.00,,---,0.00,VWS V14.01,2013-02-01 12:15:00,
2013-02-01 04:20:00,50.9,28.1,28.97,ENE,59,3.1,3.1,41,0.00,,---,0.00,VWS V14.01,2013-02-01 12:20:00,
2013-02-01 04:25:00,50.7,27.9,28.97,NE,53,3.1,3.1,41,0.00,,---,0.00,VWS V14.01,2013-02-01 12:25:00,
2013-02-01 04:30:00,50.7,27.9,28.97,North,0,3.1,3.1,41,0.00,,---,0.00,VWS V14.01,2013-02-01 12:30:00,
2013-02-01 04:35:00,50.7,29.1,28.97,NNW,328,4.0,4.0,43,0.00,,---,0.00,VWS V14.01,2013-02-01 12:35:00,
2013-02-01 04:40:00,50.9,28.6,28.97,NNW,333,2.7,2.7,42,0.00,,---,0.00,VWS V14.01,2013-02-01 12:40:00,
2013-02-01 04:45:00,51.1,27.6,28.97,NNE,19,2.7,2.7,40,0.00,,---,0.00,VWS V14.01,2013-02-01 12:45:00,
2013-02-01 04:50:00,50.9,27.5,28.97,NNW,342,4.9,4.9,40,0.00,,---,0.00,VWS V14.01,2013-02-01 12:50:00,
2013-02-01 04:55:00,51.1,28.2,28.97,NW,324,4.0,4.5,41,0.00,,---,0.00,VWS V14.01,2013-02-01 12:55:00,
2013-02-01 05:00:00,51.1,27.6,28.97,ENE,70,2.7,2.7,40,0.00,,---,0.00,VWS V14.01,2013-02-01 13:00:00,
2013-02-01 05:05:00,50.9,27.5,28.97,ENE,60,4.0,4.0,40,0.00,,---,0.00,VWS V14.01,2013-02-01 13:05:00,
2013-02-01 05:10:00,50.4,27.0,28.97,NE,45,4.9,4.9,40,0.00,,---,0.00,VWS V14.01,2013-02-01 13:10:00,
2013-02-01 05:15:00,50.4,27.6,28.97,NE,39,2.7,2.7,41,0.00,,---,0.00,VWS V14.01,2013-02-01 13:15:00,
2013-02-01 05:20:00,50.4,27.0,28.97,ENE,77,2.7,2.7,40,0.00,,---,0.00,VWS V14.01,2013-02-01 13:20:00,
2013-02-01 05:25:00,50.5,27.1,28.97,ENE,78,0.0,0.0,40,0.00,,---,0.00,VWS V14.01,2013-02-01 13:25:00,
2013-02-01 05:30:00,50.7,27.3,28.97,East,79,0.0,0.0,40,0.00,,---,0.00,VWS V14.01,2013-02-01 13:30:00,
2013-02-01 05:35:00,50.7,27.3,28.97,ENE,78,0.0,0.0,40,0.00,,---,0.00,VWS V14.01,2013-02-01 13:35:00,
2013-02-01 05:40:00,50.4,27.6,28.97,North,0,3.6,4.0,41,0.00,,---,0.00,VWS V14.01,2013-02-01 13:40:00,
2013-02-01 05:45:00,50.4,27.6,28.97,North,1,4.0,4.0,41,0.00,,---,0.00,VWS V14.01,2013-02-01 13:45:00,
2013-02-01 05:50:00,50.2,27.4,28.97,North,353,3.1,3.1,41,0.00,,---,0.00,VWS V14.01,2013-02-01 13:50:00,
2013-02-01 05:55:00,50.4,27.6,28.97,North,357,3.1,3.1,41,0.00,,---,0.00,VWS V14.01,2013-02-01 13:55:00,
2013-02-01 06:00:00,50.5,27.1,28.97,NNE,23,2.2,2.2,40,0.00,,---,0.00,VWS V14.01,2013-02-01 14:00:00,
2013-02-01 06:05:00,50.7,27.3,29.00,NNE,21,2.2,2.2,40,0.00,,---,0.00,VWS V14.01,2013-02-01 14:05:00,
2013-02-01 06:10:00,50.9,26.8,29.00,NNE,15,3.1,3.1,39,0.00,,---,0.00,VWS V14.01,2013-02-01 14:10:00,
2013-02-01 06:15:00,51.1,27.0,29.00,North,4,4.0,4.0,39,0.00,,---,0.00,VWS V14.01,2013-02-01 14:15:00,
2013-02-01 06:20:00,51.3,27.2,29.00,NNE,20,0.0,0.0,39,0.00,,---,0.00,VWS V14.01,2013-02-01 14:20:00,
2013-02-01 06:25:00,51.4,26.7,29.00,NNE,17,2.7,2.7,38,0.00,,---,0.00,VWS V14.01,2013-02-01 14:25:00,
2013-02-01 06:30:00,51.4,26.7,29.00,NNE,28,2.7,3.1,38,0.00,,---,0.00,VWS V14.01,2013-02-01 14:30:00,
2013-02-01 06:35:00,51.3,26.5,29.00,NE,36,3.1,3.1,38,0.00,,---,0.00,VWS V14.01,2013-02-01 14:35:00,
2013-02-01 06:40:00,51.3,26.5,29.00,NE,34,2.7,2.7,38,0.00,,---,0.00,VWS V14.01,2013-02-01 14:40:00,
2013-02-01 06:45:00,51.4,26.7,29.00,NNE,33,3.1,3.1,38,0.00,,---,0.00,VWS V14.01,2013-02-01 14:45:00,
2013-02-01 06:50:00,51.4,26.0,29.00,NW,325,4.0,4.0,37,0.00,,---,0.00,VWS V14.01,2013-02-01 14:50:00,
2013-02-01 06:55:00,51.3,26.5,29.00,North,353,0.0,0.0,38,0.00,,---,0.00,VWS V14.01,2013-02-01 14:55:00,
2013-02-01 07:00:00,51.3,26.5,29.00,North,357,0.0,0.0,38,0.00,,---,0.00,VWS V14.01,2013-02-01 15:00:00,
2013-02-01 07:05:00,51.4,26.7,29.00,NE,40,3.1,3.1,38,0.00,,---,0.00,VWS V14.01,2013-02-01 15:05:00,
2013-02-01 07:10:00,51.4,26.0,29.00,NE,40,3.1,3.1,37,0.00,,---,0.00,VWS V14.01,2013-02-01 15:10:00,
2013-02-01 07:15:00,51.6,26.9,29.00,NE,39,3.1,3.1,38,0.00,,---,0.00,VWS V14.01,2013-02-01 15:15:00,
2013-02-01 07:20:00,52.3,26.9,29.00,NNW,339,3.1,3.1,37,0.00,,---,0.00,VWS V14.01,2013-02-01 15:20:00,
2013-02-01 07:25:00,53.1,27.5,29.00,NNW,341,3.1,3.1,37,0.00,,---,0.00,VWS V14.01,2013-02-01 15:25:00,
2013-02-01 07:30:00,54.3,28.0,29.00,NE,46,3.1,3.1,36,0.00,,---,0.00,VWS V14.01,2013-02-01 15:30:00,
2013-02-01 07:35:00,55.0,27.9,29.00,NE,46,3.1,3.1,35,0.00,,---,0.00,VWS V14.01,2013-02-01 15:35:00,
2013-02-01 07:40:00,55.8,28.5,29.00,NE,46,2.7,2.7,35,0.00,,---,0.00,VWS V14.01,2013-02-01 15:40:00,
2013-02-01 07:45:00,56.1,28.1,29.00,NE,51,3.6,3.6,34,0.00,,---,0.00,VWS V14.01,2013-02-01 15:45:00,
2013-02-01 07:50:00,56.3,26.8,29.00,NE,46,3.1,3.1,32,0.00,,---,0.00,VWS V14.01,2013-02-01 15:50:00,
2013-02-01 07:55:00,56.8,27.3,29.00,NE,45,3.1,3.1,32,0.00,,---,0.00,VWS V14.01,2013-02-01 15:55:00,
2013-02-01 08:00:00,57.4,27.8,28.97,NE,45,0.0,0.0,32,0.00,,---,0.00,VWS V14.01,2013-02-01 16:00:00,
2013-02-01 08:05:00,57.6,27.2,28.97,NE,45,2.7,2.7,31,0.00,,---,0.00,VWS V14.01,2013-02-01 16:05:00,
2013-02-01 08:10:00,57.9,27.5,28.97,NE,56,2.7,2.7,31,0.00,,---,0.00,VWS V14.01,2013-02-01 16:10:00,
2013-02-01 08:15:00,58.6,28.9,28.97,South,183,4.5,4.5,32,0.00,,---,0.00,VWS V14.01,2013-02-01 16:15:00,
2013-02-01 08:20:00,59.2,27.8,28.97,South,176,4.9,4.9,30,0.00,,---,0.00,VWS V14.01,2013-02-01 16:20:00,
2013-02-01 08:25:00,59.4,27.9,28.97,South,171,0.0,3.1,30,0.00,,---,0.00,VWS V14.01,2013-02-01 16:25:00,
2013-02-01 08:30:00,59.9,28.4,28.97,South,171,0.0,0.0,30,0.00,,---,0.00,VWS V14.01,2013-02-01 16:30:00,
2013-02-01 08:35:00,60.6,29.0,29.00,South,171,4.0,4.0,30,0.00,,---,0.00,VWS V14.01,2013-02-01 16:35:00,
2013-02-01 08:40:00,60.8,28.4,29.00,South,172,4.9,4.9,29,0.00,,---,0.00,VWS V14.01,2013-02-01 16:40:00,
2013-02-01 08:45:00,60.8,29.2,29.00,South,178,5.8,5.8,30,0.00,,---,0.00,VWS V14.01,2013-02-01 16:45:00,
2013-02-01 08:50:00,61.0,27.7,29.00,South,185,5.4,5.8,28,0.00,,---,0.00,VWS V14.01,2013-02-01 16:50:00,
2013-02-01 08:55:00,61.5,27.2,29.00,South,172,5.8,5.8,27,0.00,,---,0.00,VWS V14.01,2013-02-01 16:55:00,
2013-02-01 09:00:00,61.5,26.3,29.00,South,180,5.4,5.4,26,0.00,,---,0.00,VWS V14.01,2013-02-01 17:00:00,
2013-02-01 09:05:00,61.7,25.5,29.00,South,175,4.9,5.4,25,0.00,,---,0.00,VWS V14.01,2013-02-01 17:05:00,
2013-02-01 09:10:00,61.7,25.5,29.00,South,174,5.4,5.4,25,0.00,,---,0.00,VWS V14.01,2013-02-01 17:10:00,
2013-02-01 09:15:00,61.7,25.5,29.00,South,190,5.4,5.4,25,0.00,,---,0.00,VWS V14.01,2013-02-01 17:15:00,
2013-02-01 09:20:00,62.1,25.9,29.00,SE,146,3.1,3.1,25,0.00,,---,0.00,VWS V14.01,2013-02-01 17:20:00,
2013-02-01 09:25:00,62.4,26.2,29.00,ESE,114,0.0,0.0,25,0.00,,---,0.00,VWS V14.01,2013-02-01 17:25:00,
2013-02-01 09:30:00,63.0,25.6,29.00,ESE,117,0.0,2.2,24,0.00,,---,0.00,VWS V14.01,2013-02-01 17:30:00,
2013-02-01 09:35:00,63.1,25.8,29.00,ESE,115,0.0,0.0,24,0.00,,---,0.00,VWS V14.01,2013-02-01 17:35:00,
2013-02-01 09:40:00,63.9,26.4,29.00,SSW,210,3.6,3.6,24,0.00,,---,0.00,VWS V14.01,2013-02-01 17:40:00,
2013-02-01 09:45:00,64.6,26.0,29.00,South,178,3.1,3.1,23,0.00,,---,0.00,VWS V14.01,2013-02-01 17:45:00,
2013-02-01 09:50:00,64.9,27.3,29.00,South,169,3.6,3.6,24,0.00,,---,0.00,VWS V14.01,2013-02-01 17:50:00,
2013-02-01 09:55:00,65.3,27.6,29.00,SSE,164,4.0,4.0,24,0.00,,---,0.00,VWS V14.01,2013-02-01 17:55:00,
2013-02-01 10:00:00,65.5,26.7,29.00,South,170,4.9,4.9,23,0.00,,---,0.00,VWS V14.01,2013-02-01 18:00:00,
2013-02-01 10:05:00,66.0,27.2,29.00,SSW,196,3.1,3.1,23,0.00,,---,0.00,VWS V14.01,2013-02-01 18:05:00,
2013-02-01 10:10:00,66.7,27.8,29.00,South,175,4.0,4.0,23,0.00,,---,0.00,VWS V14.01,2013-02-01 18:10:00,
2013-02-01 10:15:00,67.3,27.2,29.00,SSE,168,4.0,4.0,22,0.00,,---,0.00,VWS V14.01,2013-02-01 18:15:00,
2013-02-01 10:20:00,68.0,27.8,29.00,SSE,168,4.0,4.0,22,0.00,,---,0.00,VWS V14.01,2013-02-01 18:20:00,
2013-02-01 10:25:00,68.5,28.2,29.00,WNW,303,3.1,3.1,22,0.00,,---,0.00,VWS V14.01,2013-02-01 18:25:00,
2013-02-01 10:30:00,69.3,28.8,29.00,NNW,337,2.2,2.2,22,0.00,,---,0.00,VWS V14.01,2013-02-01 18:30:00,
2013-02-01 10:35:00,69.6,29.1,29.00,WNW,282,3.1,3.1,22,0.00,,---,0.00,VWS V14.01,2013-02-01 18:35:00,
2013-02-01 10:40:00,70.2,29.6,29.00,WNW,284,3.1,3.1,22,0.00,,---,0.00,VWS V14.01,2013-02-01 18:40:00,
2013-02-01 10:45:00,70.5,26.3,29.00,NNW,346,3.1,3.1,19,0.00,,---,0.00,VWS V14.01,2013-02-01 18:45:00,
2013-02-01 10:50:00,70.3,26.2,29.00,North,2,3.1,3.1,19,0.00,,---,0.00,VWS V14.01,2013-02-01 18:50:00,
2013-02-01 10:55:00,70.5,26.3,29.00,WNW,293,2.7,2.7,19,0.00,,---,0.00,VWS V14.01,2013-02-01 18:55:00,
2013-02-01 11:00:00,70.7,30.0,29.00,WNW,293,3.1,3.1,22,0.00,,---,0.00,VWS V14.01,2013-02-01 19:00:00,
2013-02-01 11:05:00,70.9,26.6,29.00,WNW,294,2.2,2.2,19,0.00,,---,0.00,VWS V14.01,2013-02-01 19:05:00,
2013-02-01 11:10:00,71.2,26.9,29.00,WNW,294,2.7,2.7,19,0.00,,---,0.00,VWS V14.01,2013-02-01 19:10:00,
2013-02-01 11:15:00,71.8,27.3,29.00,WNW,293,3.1,3.1,19,0.00,,---,0.00,VWS V14.01,2013-02-01 19:15:00,
2013-02-01 11:20:00,71.8,27.3,29.00,WNW,292,0.0,0.0,19,0.00,,---,0.00,VWS V14.01,2013-02-01 19:20:00,
2013-02-01 11:25:00,71.6,27.2,29.00,WNW,292,0.0,0.0,19,0.00,,---,0.00,VWS V14.01,2013-02-01 19:25:00,
2013-02-01 11:30:00,71.6,27.2,29.00,WNW,294,2.2,2.2,19,0.00,,---,0.00,VWS V14.01,2013-02-01 19:30:00,
2013-02-01 11:35:00,71.8,27.3,29.00,WNW,295,0.0,0.0,19,0.00,,---,0.00,VWS V14.01,2013-02-01 19:35:00,
2013-02-01 11:40:00,72.0,27.5,29.00,WNW,295,0.0,0.0,19,0.00,,---,0.00,VWS V14.01,2013-02-01 19:40:00,
2013-02-01 11:45:00,72.3,27.8,29.00,West,259,0.0,0.0,19,0.00,,---,0.00,VWS V14.01,2013-02-01 19:45:00,
2013-02-01 11:50:00,72.5,27.9,29.00,SSW,209,4.9,4.9,19,0.00,,---,0.00,VWS V14.01,2013-02-01 19:50:00,
2013-02-01 11:55:00,72.9,28.2,29.00,WNW,290,3.1,3.1,19,0.00,,---,0.00,VWS V14.01,2013-02-01 19:55:00,
2013-02-01 12:00:00,72.9,28.2,29.00,SSW,212,3.6,5.4,19,0.00,,---,0.00,VWS V14.01,2013-02-01 20:00:00,
2013-02-01 12:05:00,73.0,28.4,29.00,SSW,206,5.8,5.8,19,0.00,,---,0.00,VWS V14.01,2013-02-01 20:05:00,
2013-02-01 12:10:00,73.8,27.6,29.00,West,275,2.7,2.7,18,0.00,,---,0.00,VWS V14.01,2013-02-01 20:10:00,
2013-02-01 12:15:00,75.6,24.7,29.00,NNW,344,0.0,0.0,15,0.00,,---,0.00,VWS V14.01,2013-02-01 20:15:00,
2013-02-01 12:20:00,75.7,24.9,29.00,West,280,3.1,3.1,15,0.00,,---,0.00,VWS V14.01,2013-02-01 20:20:00,
2013-02-01 12:25:00,75.6,29.1,29.00,West,264,4.9,5.4,18,0.00,,---,0.00,VWS V14.01,2013-02-01 20:25:00,
2013-02-01 12:30:00,75.0,25.8,29.00,West,275,6.3,6.3,16,0.00,,---,0.00,VWS V14.01,2013-02-01 20:30:00,
2013-02-01 12:35:00,75.9,29.4,29.00,WNW,283,4.9,4.9,18,0.00,,---,0.00,VWS V14.01,2013-02-01 20:35:00,
2013-02-01 12:40:00,80.1,28.3,29.00,WNW,294,4.9,4.9,15,0.00,,---,0.00,VWS V14.01,2013-02-01 20:40:00,
2013-02-01 12:45:00,82.9,28.9,28.97,West,262,5.8,5.8,14,0.00,,---,0.00,VWS V14.01,2013-02-01 20:45:00,
2013-02-01 12:50:00,81.1,27.5,28.97,NNW,337,5.4,8.3,14,0.00,,---,0.00,VWS V14.01,2013-02-01 20:50:00,
2013-02-01 12:55:00,78.1,26.7,28.97,WNW,293,3.1,3.1,15,0.00,,---,0.00,VWS V14.01,2013-02-01 20:55:00,
2013-02-01 13:00:00,77.0,25.9,28.97,West,277,4.0,4.0,15,0.00,,---,0.00,VWS V14.01,2013-02-01 21:00:00,
2013-02-01 13:05:00,76.6,25.6,28.97,West,261,7.6,7.6,15,0.00,,---,0.00,VWS V14.01,2013-02-01 21:05:00,
2013-02-01 13:10:00,76.3,25.3,28.97,NW,316,5.8,5.8,15,0.00,,---,0.00,VWS V14.01,2013-02-01 21:10:00,
2013-02-01 13:15:00,76.1,25.1,28.97,West,278,5.8,5.8,15,0.00,,---,0.00,VWS V14.01,2013-02-01 21:15:00,
2013-02-01 13:20:00,75.7,24.9,28.97,NW,314,7.6,7.6,15,0.00,,---,0.00,VWS V14.01,2013-02-01 21:20:00,
2013-02-01 13:25:00,75.7,24.9,28.97,WNW,292,8.3,8.3,15,0.00,,---,0.00,VWS V14.01,2013-02-01 21:25:00,
2013-02-01 13:30:00,76.1,25.1,28.97,West,272,6.3,7.6,15,0.00,,---,0.00,VWS V14.01,2013-02-01 21:30:00,
2013-02-01 13:34:00,75.7,24.9,28.97,WSW,243,5.8,5.8,15,0.00,,---,0.00,VWS V14.01,2013-02-01 21:34:00,
2013-02-01 13:39:00,75.6,24.7,28.97,West,276,7.6,8.1,15,0.00,,---,0.00,VWS V14.01,2013-02-01 21:39:00,
2013-02-01 13:44:00,75.9,25.0,28.97,WNW,286,5.8,5.8,15,0.00,,---,0.00,VWS V14.01,2013-02-01 21:44:00,
2013-02-01 13:49:00,75.6,24.7,28.97,WNW,298,6.3,6.3,15,0.00,,---,0.00,VWS V14.01,2013-02-01 21:49:00,
2013-02-01 13:54:00,75.6,24.7,28.97,West,266,8.1,8.1,15,0.00,,---,0.00,VWS V14.01,2013-02-01 21:54:00,
2013-02-01 13:59:00,75.7,24.9,28.97,West,273,8.3,8.3,15,0.00,,---,0.00,VWS V14.01,2013-02-01 21:59:00,
2013-02-01 14:04:00,75.7,24.9,28.97,West,275,5.4,6.3,15,0.00,,---,0.00,VWS V14.01,2013-02-01 22:04:00,
2013-02-01 14:09:00,75.7,24.9,28.97,WNW,289,7.2,7.2,15,0.00,,---,0.00,VWS V14.01,2013-02-01 22:09:00,
2013-02-01 14:14:00,75.7,24.9,28.97,WNW,294,5.8,5.8,15,0.00,,---,0.00,VWS V14.01,2013-02-01 22:14:00,
2013-02-01 14:19:00,75.6,24.7,28.97,WNW,285,8.1,8.1,15,0.00,,---,0.00,VWS V14.01,2013-02-01 22:19:00,
2013-02-01 14:24:00,75.4,24.6,28.97,WNW,284,3.6,3.6,15,0.00,,---,0.00,VWS V14.01,2013-02-01 22:24:00,
2013-02-01 14:29:00,75.2,24.4,28.97,West,274,3.1,3.1,15,0.00,,---,0.00,VWS V14.01,2013-02-01 22:29:00,
2013-02-01 14:34:00,75.2,24.4,28.97,WNW,297,6.3,6.3,15,0.00,,---,0.00,VWS V14.01,2013-02-01 22:34:00,
2013-02-01 14:39:00,74.8,25.7,28.97,WSW,256,7.6,7.6,16,0.00,,---,0.00,VWS V14.01,2013-02-01 22:39:00,
2013-02-01 14:44:00,75.2,24.4,28.97,WNW,299,7.6,7.6,15,0.00,,---,0.00,VWS V14.01,2013-02-01 22:44:00,
2013-02-01 14:49:00,75.2,24.4,28.97,WNW,292,3.6,3.6,15,0.00,,---,0.00,VWS V14.01,2013-02-01 22:49:00,
2013-02-01 14:54:00,75.0,25.8,28.97,West,275,8.3,8.3,16,0.00,,---,0.00,VWS V14.01,2013-02-01 22:54:00,
2013-02-01 14:59:00,75.0,25.8,28.97,West,271,6.3,8.1,16,0.00,,---,0.00,VWS V14.01,2013-02-01 22:59:00,
2013-02-01 15:04:00,74.7,25.5,28.97,WSW,254,5.4,5.4,16,0.00,,---,0.00,VWS V14.01,2013-02-01 23:04:00,
2013-02-01 15:09:00,74.5,25.4,28.97,WSW,247,5.4,5.4,16,0.00,,---,0.00,VWS V14.01,2013-02-01 23:09:00,
2013-02-01 15:14:00,74.8,25.7,28.97,West,280,6.7,6.7,16,0.00,,---,0.00,VWS V14.01,2013-02-01 23:14:00,
2013-02-01 15:19:00,74.7,25.5,28.97,West,260,5.8,5.8,16,0.00,,---,0.00,VWS V14.01,2013-02-01 23:19:00,
2013-02-01 15:24:00,74.5,25.4,28.97,WNW,289,5.8,5.8,16,0.00,,---,0.00,VWS V14.01,2013-02-01 23:24:00,
2013-02-01 15:29:00,74.7,28.4,28.97,West,281,7.2,7.2,18,0.00,,---,0.00,VWS V14.01,2013-02-01 23:29:00,
2013-02-01 15:34:00,74.1,27.9,28.97,West,265,4.5,7.2,18,0.00,,---,0.00,VWS V14.01,2013-02-01 23:34:00,
2013-02-01 15:39:00,74.1,27.9,28.97,West,281,5.4,5.4,18,0.00,,---,0.00,VWS V14.01,2013-02-01 23:39:00,
2013-02-01 15:44:00,74.1,27.9,28.97,West,281,4.9,4.9,18,0.00,,---,0.00,VWS V14.01,2013-02-01 23:44:00,
2013-02-01 15:49:00,73.8,27.6,28.97,NW,325,4.9,4.9,18,0.00,,---,0.00,VWS V14.01,2013-02-01 23:49:00,
2013-02-01 15:54:00,73.6,27.5,28.97,NNW,329,5.4,5.4,18,0.00,,---,0.00,VWS V14.01,2013-02-01 23:54:00,
2013-02-01 15:59:00,73.8,27.6,28.97,NW,309,4.0,4.0,18,0.00,,---,0.00,VWS V14.01,2013-02-01 23:59:00,
2013-02-01 16:04:00,73.2,28.5,28.97,WSW,258,5.4,5.4,19,0.00,,---,0.00,VWS V14.01,2013-02-02 00:04:00,
2013-02-01 16:09:00,72.9,28.2,28.97,West,281,6.3,6.3,19,0.00,,---,0.00,VWS V14.01,2013-02-02 00:09:00,
2013-02-01 16:14:00,73.0,28.4,28.97,WNW,301,6.3,6.3,19,0.00,,---,0.00,VWS V14.01,2013-02-02 00:14:00,
2013-02-01 16:19:00,72.9,28.2,28.97,West,280,6.3,7.6,19,0.00,,---,0.00,VWS V14.01,2013-02-02 00:19:00,
2013-02-01 16:24:00,72.9,28.2,28.97,WSW,253,8.7,8.7,19,0.00,,---,0.00,VWS V14.01,2013-02-02 00:24:00,
2013-02-01 16:29:00,72.9,28.2,28.97,WNW,286,7.6,7.6,19,0.00,,---,0.00,VWS V14.01,2013-02-02 00:29:00,
2013-02-01 16:34:00,72.1,27.6,28.97,WNW,293,8.1,8.1,19,0.00,,---,0.00,VWS V14.01,2013-02-02 00:34:00,
2013-02-01 16:39:00,72.0,27.5,28.97,West,272,7.6,7.6,19,0.00,,---,0.00,VWS V14.01,2013-02-02 00:39:00,
2013-02-01 16:44:00,71.8,27.3,28.97,West,268,6.3,6.3,19,0.00,,---,0.00,VWS V14.01,2013-02-02 00:44:00,
2013-02-01 16:49:00,71.6,27.2,28.97,West,281,5.4,5.4,19,0.00,,---,0.00,VWS V14.01,2013-02-02 00:49:00,
2013-02-01 16:54:00,71.2,26.9,28.97,West,265,6.3,6.3,19,0.00,,---,0.00,VWS V14.01,2013-02-02 00:54:00,
2013-02-01 16:59:00,71.4,27.0,28.97,West,274,5.8,6.3,19,0.00,,---,0.00,VWS V14.01,2013-02-02 00:59:00,
2013-02-01 17:04:00,70.7,26.5,28.97,WNW,286,8.1,8.1,19,0.00,,---,0.00,VWS V14.01,2013-02-02 01:04:00,
2013-02-01 17:09:00,70.3,26.2,28.97,West,264,6.7,8.1,19,0.00,,---,0.00,VWS V14.01,2013-02-02 01:09:00,
2013-02-01 17:14:00,70.3,26.2,28.97,West,276,6.3,6.3,19,0.00,,---,0.00,VWS V14.01,2013-02-02 01:14:00,
2013-02-01 17:19:00,70.2,26.0,28.97,West,276,6.3,6.3,19,0.00,,---,0.00,VWS V14.01,2013-02-02 01:19:00,
2013-02-01 17:24:00,69.6,26.8,28.97,West,262,5.4,6.3,20,0.00,,---,0.00,VWS V14.01,2013-02-02 01:24:00,
2013-02-01 17:29:00,69.8,25.7,28.97,WSW,258,5.4,5.4,19,0.00,,---,0.00,VWS V14.01,2013-02-02 01:29:00,
2013-02-01 17:34:00,69.3,26.5,28.97,WNW,286,5.8,5.8,20,0.00,,---,0.00,VWS V14.01,2013-02-02 01:34:00,
2013-02-01 17:39:00,68.9,28.5,28.97,WSW,258,6.3,7.6,22,0.00,,---,0.00,VWS V14.01,2013-02-02 01:39:00,
2013-02-01 17:44:00,69.1,28.7,28.97,West,262,7.6,7.6,22,0.00,,---,0.00,VWS V14.01,2013-02-02 01:44:00,
2013-02-01 17:49:00,68.9,28.5,28.97,West,264,5.4,5.8,22,0.00,,---,0.00,VWS V14.01,2013-02-02 01:49:00,
2013-02-01 17:54:00,68.7,28.4,28.97,West,269,6.3,6.3,22,0.00,,---,0.00,VWS V14.01,2013-02-02 01:54:00,
2013-02-01 17:59:00,68.9,28.5,29.00,WSW,249,5.8,5.8,22,0.00,,---,0.00,VWS V14.01,2013-02-02 01:59:00,
2013-02-01 18:04:00,68.2,27.9,29.00,West,265,5.4,5.4,22,0.00,,---,0.00,VWS V14.01,2013-02-02 02:04:00,
2013-02-01 18:09:00,68.0,27.8,29.00,West,259,5.4,5.4,22,0.00,,---,0.00,VWS V14.01,2013-02-02 02:09:00,
2013-02-01 18:14:00,68.0,28.9,29.00,West,259,5.4,5.4,23,0.00,,---,0.00,VWS V14.01,2013-02-02 02:14:00,
2013-02-01 18:19:00,67.6,28.5,29.00,West,271,4.0,4.0,23,0.00,,---,0.00,VWS V14.01,2013-02-02 02:19:00,
2013-02-01 18:24:00,67.5,28.4,29.00,West,260,5.4,5.4,23,0.00,,---,0.00,VWS V14.01,2013-02-02 02:24:00,
2013-02-01 18:29:00,67.6,28.5,29.00,West,259,4.9,4.9,23,0.00,,---,0.00,VWS V14.01,2013-02-02 02:29:00,
2013-02-01 18:34:00,67.3,28.2,29.00,West,273,5.4,5.4,23,0.00,,---,0.00,VWS V14.01,2013-02-02 02:34:00,
2013-02-01 18:39:00,67.1,29.1,29.00,West,268,5.4,5.4,24,0.00,,---,0.00,VWS V14.01,2013-02-02 02:39:00,
2013-02-01 18:44:00,66.9,29.0,29.00,WSW,258,2.2,2.2,24,0.00,,---,0.00,VWS V14.01,2013-02-02 02:44:00,
2013-02-01 18:49:00,66.7,28.8,29.00,SSW,195,4.0,4.0,24,0.00,,---,0.00,VWS V14.01,2013-02-02 02:49:00,
2013-02-01 18:54:00,66.6,28.7,29.00,SSW,199,3.6,3.6,24,0.00,,---,0.00,VWS V14.01,2013-02-02 02:54:00,
2013-02-01 18:59:00,66.2,28.4,29.00,South,184,4.0,4.0,24,0.00,,---,0.00,VWS V14.01,2013-02-02 02:59:00,
2013-02-01 19:04:00,65.8,29.1,29.00,South,187,3.6,3.6,25,0.00,,---,0.00,VWS V14.01,2013-02-02 03:04:00,
2013-02-01 19:09:00,65.7,28.9,29.00,ESE,116,2.2,2.2,25,0.00,,---,0.00,VWS V14.01,2013-02-02 03:09:00,
2013-02-01 19:14:00,65.3,28.6,29.00,NE,55,0.0,0.0,25,0.00,,---,0.00,VWS V14.01,2013-02-02 03:14:00,
2013-02-01 19:19:00,64.8,28.1,29.00,NE,54,0.0,0.0,25,0.00,,---,0.00,VWS V14.01,2013-02-02 03:19:00,
2013-02-01 19:24:00,64.2,28.6,29.00,ENE,57,3.6,3.6,26,0.00,,---,0.00,VWS V14.01,2013-02-02 03:24:00,
2013-02-01 19:29:00,64.0,28.5,29.00,ESE,108,4.9,4.9,26,0.00,,---,0.00,VWS V14.01,2013-02-02 03:29:00,
2013-02-01 19:34:00,64.2,28.6,29.00,East,83,3.6,3.6,26,0.00,,---,0.00,VWS V14.01,2013-02-02 03:34:00,
2013-02-01 19:39:00,63.9,30.1,29.00,East,93,3.1,3.1,28,0.00,,---,0.00,VWS V14.01,2013-02-02 03:39:00,
2013-02-01 19:44:00,63.7,30.0,29.00,East,93,3.6,3.6,28,0.00,,---,0.00,VWS V14.01,2013-02-02 03:44:00,
2013-02-01 19:49:00,63.5,29.8,29.00,East,93,3.6,3.6,28,0.00,,---,0.00,VWS V14.01,2013-02-02 03:49:00,
2013-02-01 19:54:00,63.3,29.7,29.00,NNE,28,0.0,0.0,28,0.00,,---,0.00,VWS V14.01,2013-02-02 03:54:00,
2013-02-01 19:59:00,63.1,30.4,29.03,NNE,28,0.0,0.0,29,0.00,,---,0.00,VWS V14.01,2013-02-02 03:59:00,
2013-02-01 20:04:00,63.0,30.2,29.03,NNE,12,0.0,0.0,29,0.00,,---,0.00,VWS V14.01,2013-02-02 04:04:00,
2013-02-01 20:09:00,63.0,29.4,29.03,North,10,2.7,2.7,28,0.00,,---,0.00,VWS V14.01,2013-02-02 04:09:00,
2013-02-01 20:14:00,63.0,30.2,29.03,North,9,0.0,0.0,29,0.00,,---,0.00,VWS V14.01,2013-02-02 04:14:00,
2013-02-01 20:19:00,62.8,30.1,29.03,North,9,0.0,0.0,29,0.00,,---,0.00,VWS V14.01,2013-02-02 04:19:00,
2013-02-01 20:24:00,62.6,29.9,29.03,North,8,2.2,2.2,29,0.00,,---,0.00,VWS V14.01,2013-02-02 04:24:00,
2013-02-01 20:29:00,62.6,29.9,29.03,North,8,0.0,0.0,29,0.00,,---,0.00,VWS V14.01,2013-02-02 04:29:00,
2013-02-01 20:34:00,62.6,29.9,29.03,North,10,0.0,0.0,29,0.00,,---,0.00,VWS V14.01,2013-02-02 04:34:00,
2013-02-01 20:39:00,62.4,29.8,29.03,North,9,0.0,0.0,29,0.00,,---,0.00,VWS V14.01,2013-02-02 04:39:00,
2013-02-01 20:44:00,62.2,29.6,29.03,North,7,2.2,2.2,29,0.00,,---,0.00,VWS V14.01,2013-02-02 04:44:00,
2013-02-01 20:49:00,61.9,30.1,29.03,NNW,330,3.6,3.6,30,0.00,,---,0.00,VWS V14.01,2013-02-02 04:49:00,
2013-02-01 20:54:00,61.9,30.9,29.03,NW,322,3.1,3.1,31,0.00,,---,0.00,VWS V14.01,2013-02-02 04:54:00,
2013-02-01 20:59:00,61.9,30.9,29.03,NNW,327,3.6,3.6,31,0.00,,---,0.00,VWS V14.01,2013-02-02 04:59:00,
2013-02-01 21:00:00,61.9,30.9,29.03,NNW,327,3.6,3.6,31,0.00,,---,0.00,VWS V14.01,2013-02-02 05:00:00,
2013-02-01 21:05:00,61.7,30.8,29.03,NNW,327,3.1,3.1,31,0.00,,---,0.00,VWS V14.01,2013-02-02 05:05:00,
2013-02-01 21:10:00,61.7,30.8,29.03,NNW,328,0.0,0.0,31,0.00,,---,0.00,VWS V14.01,2013-02-02 05:10:00,
2013-02-01 21:15:00,61.7,30.8,29.03,NNW,328,0.0,0.0,31,0.00,,---,0.00,VWS V14.01,2013-02-02 05:15:00,
2013-02-01 21:20:00,61.7,30.8,29.03,NNW,328,0.0,0.0,31,0.00,,---,0.00,VWS V14.01,2013-02-02 05:20:00,
2013-02-01 21:25:00,61.5,32.2,29.03,NNW,330,0.0,0.0,33,0.00,,---,0.00,VWS V14.01,2013-02-02 05:25:00,
2013-02-01 21:30:00,61.2,32.6,29.03,NNW,330,2.7,2.7,34,0.00,,---,0.00,VWS V14.01,2013-02-02 05:30:00,
2013-02-01 21:35:00,61.0,32.4,29.03,NNW,330,2.7,2.7,34,0.00,,---,0.00,VWS V14.01,2013-02-02 05:35:00,
2013-02-01 21:40:00,60.6,32.1,29.03,NNW,330,2.2,2.2,34,0.00,,---,0.00,VWS V14.01,2013-02-02 05:40:00,
2013-02-01 21:45:00,60.6,32.1,29.03,NNW,331,2.2,2.7,34,0.00,,---,0.00,VWS V14.01,2013-02-02 05:45:00,
2013-02-01 21:50:00,60.6,32.1,29.03,NNW,331,0.0,0.0,34,0.00,,---,0.00,VWS V14.01,2013-02-02 05:50:00,
2013-02-01 21:55:00,60.6,32.1,29.03,NNW,331,2.7,2.7,34,0.00,,---,0.00,VWS V14.01,2013-02-02 05:55:00,
2013-02-01 22:00:00,60.6,32.1,29.03,NNW,331,2.7,2.7,34,0.00,,---,0.00,VWS V14.01,2013-02-02 06:00:00,
2013-02-01 22:05:00,60.4,32.0,29.03,NW,323,2.7,2.7,34,0.00,,---,0.00,VWS V14.01,2013-02-02 06:05:00,
2013-02-01 22:10:00,60.4,32.0,29.03,NW,311,2.7,2.7,34,0.00,,---,0.00,VWS V14.01,2013-02-02 06:10:00,
2013-02-01 22:15:00,60.4,32.0,29.03,NW,311,0.0,0.0,34,0.00,,---,0.00,VWS V14.01,2013-02-02 06:15:00,
2013-02-01 22:20:00,60.4,32.0,29.03,NW,311,0.0,0.0,34,0.00,,---,0.00,VWS V14.01,2013-02-02 06:20:00,
2013-02-01 22:25:00,60.4,32.0,29.03,NW,311,0.0,0.0,34,0.00,,---,0.00,VWS V14.01,2013-02-02 06:25:00,
2013-02-01 22:30:00,60.4,32.0,29.03,NW,311,2.2,2.2,34,0.00,,---,0.00,VWS V14.01,2013-02-02 06:30:00,
2013-02-01 22:35:00,60.1,32.4,29.03,NW,311,2.2,2.7,35,0.00,,---,0.00,VWS V14.01,2013-02-02 06:35:00,
2013-02-01 22:40:00,59.9,32.2,29.03,NW,311,2.2,2.2,35,0.00,,---,0.00,VWS V14.01,2013-02-02 06:40:00,
2013-02-01 22:45:00,59.7,32.0,29.03,NW,311,0.0,0.0,35,0.00,,---,0.00,VWS V14.01,2013-02-02 06:45:00,
2013-02-01 22:50:00,59.0,32.8,29.03,East,82,2.7,2.7,37,0.00,,---,0.00,VWS V14.01,2013-02-02 06:50:00,
2013-02-01 22:55:00,58.1,33.9,29.03,East,82,2.7,2.7,40,0.00,,---,0.00,VWS V14.01,2013-02-02 06:55:00,
2013-02-01 23:00:00,57.9,33.8,29.03,ENE,67,4.0,4.0,40,0.00,,---,0.00,VWS V14.01,2013-02-02 07:00:00,
2013-02-01 23:05:00,57.7,33.6,29.03,ENE,71,3.1,4.0,40,0.00,,---,0.00,VWS V14.01,2013-02-02 07:05:00,
2013-02-01 23:10:00,57.6,32.8,29.03,ENE,72,4.9,4.9,39,0.00,,---,0.00,VWS V14.01,2013-02-02 07:10:00,
2013-02-01 23:15:00,57.6,31.5,29.03,NE,52,6.3,6.3,37,0.00,,---,0.00,VWS V14.01,2013-02-02 07:15:00,
2013-02-01 23:20:00,58.1,32.0,29.03,NE,37,3.6,3.6,37,0.00,,---,0.00,VWS V14.01,2013-02-02 07:20:00,
2013-02-01 23:25:00,58.3,31.5,29.03,NE,35,4.0,4.0,36,0.00,,---,0.00,VWS V14.01,2013-02-02 07:25:00,
2013-02-01 23:30:00,58.3,31.5,29.03,NNE,16,3.1,3.1,36,0.00,,---,0.00,VWS V14.01,2013-02-02 07:30:00,
2013-02-01 23:35:00,58.5,31.6,29.03,NNE,33,3.1,3.1,36,0.00,,---,0.00,VWS V14.01,2013-02-02 07:35:00,
2013-02-01 23:40:00,58.5,31.6,29.03,NE,38,0.0,3.1,36,0.00,,---,0.00,VWS V14.01,2013-02-02 07:40:00,
2013-02-01 23:45:00,58.5,31.6,29.03,NE,37,2.7,2.7,36,0.00,,---,0.00,VWS V14.01,2013-02-02 07:45:00,
2013-02-01 23:50:00,58.3,31.5,29.03,NNW,339,4.0,4.0,36,0.00,,---,0.00,VWS V14.01,2013-02-02 07:50:00,
2013-02-01 23:55:00,58.3,31.5,29.03,NNW,341,0.0,0.0,36,0.00,,---,0.00,VWS V14.01,2013-02-02 07:55:00,